Brixham, United Kingdom

10:55 AM GMT on November 27, 2014 (GMT +0000)
BRIXHAM | Change Station
CLOSE
Current Station
Personal Weather Station
Location: Brixham, Torbay, DEVON
Elevation: 180 ft
Nearby Weather Stations

Elev 180 ft 50.38 °N, 3.52 °W | Updated 10 minutes ago

Fog
Fog
45.0 °F
Feels Like 45 °F
N
0.0
Wind Variable Wind from West
Gusts 1.0 mph

Today
High -- | Low -- °F
--% Chance of Precip.
Yesterday
High -- | Low -- °F
Precip. -- in
7:46 AM 4:16 PM
Waxing Crescent, 28% visible
Pressure 29.56 in
Visibility 0.1 miles
Clouds Mostly Cloudy 100 ft
Windchill 45 °F
Dew Point 45 °F
Humidity 99%
Rainfall 0.00 in
Snow Depth Not available.
UV 1 out of 12
Pollen Not available.
Air Quality Not available.
Flu Activity Not available.
METAR EGTE 271050Z VRB01KT 0200 R08/0500 R26/0450 FG BKN001 03/02 Q1001

More Conditions Fewer Conditions

Pressure 29.56 in
Visibility 0.1 miles
Clouds Mostly Cloudy 100 ft
Windchill 45 °F
Dew Point 45 °F
Humidity 99%
Rainfall 0.00 in
Snow Depth Not available.
UV 1 out of 12
Pollen Not available.
Air Quality Not available.
Flu Activity Not available.
METAR EGTE 271050Z VRB01KT 0200 R08/0500 R26/0450 FG BKN001 03/02 Q1001

More Conditions Fewer Conditions

10-Day Weather Forecast

Almanac

Astronomy

Nov. 27, 2014 Rise Set
Actual Time
Civil Twilight
Nautical Twilight
Astronomical Twilight
Moon
Length of Visible Light
Length of Day
Tomorrow will be .
, % of the Moon is Illuminated

Today's Extremes

Country Highs Country Lows

Community

WunderPhotos

Upload Photos

1,773,968 photos uploaded!

WunderBlogs® & News

Nearby

Air Quality

  Air Quality AQ Index Pollutant
Not available.

Snow Depth

Station Depth Elevation

Earthquake Activity

City Distance Mag. Time & Date
Minimum magnitude displayed is 2.5.

Coastal Water Temperatures

Place Temperature

Nearby Weather Stations